Hiyodori — JD2366 — position and weather

sailwx.info

Track history (hours):
 
Tides and Currents Weather Stations Pressure Air Temp Water Temp Dewpoint Dewpoint Depression Visibility Wind Speed Wind Dir Waves Ship Positions

Hiyodori

Last reported at 2014-Nov-29 06:14 UTC. Time now 2014-Nov-29 07:31 UTC.
Position N 34°02' E 134°59'.

Length 88 m; draft 3.6 m.

Type: Cargo ship. MMSI: 431000132.

Date/timePositionNaut miles runAvg speedWind from/ knotsBaromVisibWave heightAir tempDewpointWater temp
2014-Nov-29 06:14N 34°02' E 134°59'913.5
2014-Nov-29 05:32N 34°12' E 134°59'1212.1
2014-Nov-29 04:34N 34°23' E 135°02'1313.0
2014-Nov-29 03:34N 34°32' E 135°13'9 8.8
2014-Nov-29 02:33N 34°41' E 135°17'2 2.3
2014-Nov-29 01:33N 34°39' E 135°16'0 0.4
2014-Nov-29 00:33N 34°39' E 135°16'2 1.9
2014-Nov-28 23:34N 34°40' E 135°14'2 2.3
2014-Nov-28 22:33N 34°41' E 135°16'0 0.3
2014-Nov-28 21:33N 34°41' E 135°17'0 0.0
2014-Nov-28 20:34N 34°41' E 135°17'0 0.0
2014-Nov-28 19:34N 34°41' E 135°17'0 0.0
2014-Nov-28 18:34N 34°41' E 135°17'0 0.0
2014-Nov-28 17:33N 34°41' E 135°17'0 0.0
2014-Nov-28 16:33N 34°41' E 135°17'0 0.0
2014-Nov-28 15:33N 34°41' E 135°17'0 0.0
2014-Nov-28 14:34N 34°41' E 135°17'0 0.0
2014-Nov-28 13:33N 34°41' E 135°17'0 0.0
2014-Nov-28 12:34N 34°41' E 135°17'0 0.0
2014-Nov-28 11:34N 34°41' E 135°17'0 0.0
2014-Nov-28 10:33N 34°41' E 135°17'0 0.0
2014-Nov-28 09:34N 34°41' E 135°17'0 0.0
2014-Nov-28 08:34N 34°41' E 135°17'1 0.7
2014-Nov-28 07:33N 34°41' E 135°17'0 0.0
2014-Nov-28 06:33N 34°41' E 135°17'0 0.0
2014-Nov-28 05:33N 34°41' E 135°17'9 9.1
2014-Nov-28 04:33N 34°33' E 135°14'2013.6
2014-Nov-28 03:04N 34°17' E 134°59'714.3
2014-Nov-28 02:33N 34°09' E 135°00'1413.4
2014-Nov-28 01:33N 33°56' E 135°01'24211.6
2014-Nov-27 04:33N 35°08' E 139°42'1111.3
2014-Nov-27 03:33N 35°19' E 139°43'5 5.0
2014-Nov-27 02:34N 35°24' E 139°41'1 0.8
2014-Nov-27 01:33N 35°24' E 139°40'0 0.2
2014-Nov-27 00:33N 35°23' E 139°40'0 0.0
2014-Nov-26 23:33N 35°23' E 139°40'0 0.0
2014-Nov-26 22:34N 35°23' E 139°40'0 0.0
2014-Nov-26 21:34N 35°23' E 139°40'0 0.0
2014-Nov-26 20:33N 35°23' E 139°40'0 0.0
2014-Nov-26 19:33N 35°23' E 139°40'0 0.0
2014-Nov-26 18:34N 35°23' E 139°40'0 0.0
2014-Nov-26 17:33N 35°23' E 139°40'0 0.0
2014-Nov-26 16:33N 35°23' E 139°40'0 0.0
2014-Nov-26 15:33N 35°23' E 139°40'0 0.0
2014-Nov-26 14:34N 35°23' E 139°40'0 0.0
2014-Nov-26 13:33N 35°23' E 139°40'0 0.3
2014-Nov-26 12:33N 35°23' E 139°40'3 3.0
2014-Nov-26 11:33N 35°26' E 139°41'0 0.0
2014-Nov-26 10:33N 35°26' E 139°41'2 2.1
2014-Nov-26 09:34N 35°26' E 139°43'11 9.9
2014-Nov-26 08:30N 35°36' E 139°46'1 1.0
2014-Nov-26 07:25N 35°36' E 139°47'4 5.0
2014-Nov-26 06:33N 35°34' E 139°51'6 5.6
2014-Nov-26 05:33N 35°28' E 139°51'9 9.0
2014-Nov-26 04:33N 35°21' E 139°45'10 8.5
2014-Nov-26 03:24N 35°11' E 139°46'  
2014-Nov-22 09:07N 35°12' E 139°46'712.7
2014-Nov-22 08:33N 35°19' E 139°43'6 5.5
2014-Nov-22 07:33N 35°24' E 139°41'0 0.2
2014-Nov-22 06:33N 35°24' E 139°41'6 5.6
2014-Nov-22 05:33N 35°28' E 139°45'3 3.0
2014-Nov-22 04:33N 35°25' E 139°46'1211.4
2014-Nov-22 03:33N 35°14' E 139°47'3 0.1
2014-Nov-20 07:12N 35°11' E 139°46'812.1
2014-Nov-20 06:34N 35°19' E 139°43'1110.9
2014-Nov-20 05:33N 35°28' E 139°49'9 7.3
2014-Nov-20 04:24N 35°36' E 139°46'4 5.0
2014-Nov-20 03:33N 35°34' E 139°50'3 3.3
2014-Nov-20 02:33N 35°30' E 139°50'0 0.0
2014-Nov-20 01:34N 35°30' E 139°50'0 0.0
2014-Nov-20 00:33N 35°30' E 139°50'0 0.0
2014-Nov-19 18:16N 35°30' E 139°50'5 6.7
2014-Nov-19 17:33N 35°26' E 139°47'1111.1
2014-Nov-19 16:33N 35°15' E 139°47'  
Track history (hours):
 
Tides and Currents Weather Stations Pressure Air Temp Water Temp Dewpoint Dewpoint Depression Visibility Wind Speed Wind Dir Waves Ship Positions

Hiyodori

Last reported at 2014-Nov-29 06:14 UTC. Time now 2014-Nov-29 07:31 UTC.
Position N 34°02' E 134°59'.

Length 88 m; draft 3.6 m.

Type: Cargo ship. MMSI: 431000132.

Date/timePositionNaut miles runAvg speedWind from/ knotsBaromVisibWave heightAir tempDewpointWater temp
2014-Nov-29 06:14N 34°02' E 134°59'913.5
2014-Nov-29 05:32N 34°12' E 134°59'1212.1
2014-Nov-29 04:34N 34°23' E 135°02'1313.0
2014-Nov-29 03:34N 34°32' E 135°13'9 8.8
2014-Nov-29 02:33N 34°41' E 135°17'2 2.3
2014-Nov-29 01:33N 34°39' E 135°16'0 0.4
2014-Nov-29 00:33N 34°39' E 135°16'2 1.9
2014-Nov-28 23:34N 34°40' E 135°14'2 2.3
2014-Nov-28 22:33N 34°41' E 135°16'0 0.3
2014-Nov-28 21:33N 34°41' E 135°17'0 0.0
2014-Nov-28 20:34N 34°41' E 135°17'0 0.0
2014-Nov-28 19:34N 34°41' E 135°17'0 0.0
2014-Nov-28 18:34N 34°41' E 135°17'0 0.0
2014-Nov-28 17:33N 34°41' E 135°17'0 0.0
2014-Nov-28 16:33N 34°41' E 135°17'0 0.0
2014-Nov-28 15:33N 34°41' E 135°17'0 0.0
2014-Nov-28 14:34N 34°41' E 135°17'0 0.0
2014-Nov-28 13:33N 34°41' E 135°17'0 0.0
2014-Nov-28 12:34N 34°41' E 135°17'0 0.0
2014-Nov-28 11:34N 34°41' E 135°17'0 0.0
2014-Nov-28 10:33N 34°41' E 135°17'0 0.0
2014-Nov-28 09:34N 34°41' E 135°17'0 0.0
2014-Nov-28 08:34N 34°41' E 135°17'1 0.7
2014-Nov-28 07:33N 34°41' E 135°17'0 0.0
2014-Nov-28 06:33N 34°41' E 135°17'0 0.0
2014-Nov-28 05:33N 34°41' E 135°17'9 9.1
2014-Nov-28 04:33N 34°33' E 135°14'2013.6
2014-Nov-28 03:04N 34°17' E 134°59'714.3
2014-Nov-28 02:33N 34°09' E 135°00'1413.4
2014-Nov-28 01:33N 33°56' E 135°01'24211.6
2014-Nov-27 04:33N 35°08' E 139°42'1111.3
2014-Nov-27 03:33N 35°19' E 139°43'5 5.0
2014-Nov-27 02:34N 35°24' E 139°41'1 0.8
2014-Nov-27 01:33N 35°24' E 139°40'0 0.2
2014-Nov-27 00:33N 35°23' E 139°40'0 0.0
2014-Nov-26 23:33N 35°23' E 139°40'0 0.0
2014-Nov-26 22:34N 35°23' E 139°40'0 0.0
2014-Nov-26 21:34N 35°23' E 139°40'0 0.0
2014-Nov-26 20:33N 35°23' E 139°40'0 0.0
2014-Nov-26 19:33N 35°23' E 139°40'0 0.0
2014-Nov-26 18:34N 35°23' E 139°40'0 0.0
2014-Nov-26 17:33N 35°23' E 139°40'0 0.0
2014-Nov-26 16:33N 35°23' E 139°40'0 0.0
2014-Nov-26 15:33N 35°23' E 139°40'0 0.0
2014-Nov-26 14:34N 35°23' E 139°40'0 0.0
2014-Nov-26 13:33N 35°23' E 139°40'0 0.3
2014-Nov-26 12:33N 35°23' E 139°40'3 3.0
2014-Nov-26 11:33N 35°26' E 139°41'0 0.0
2014-Nov-26 10:33N 35°26' E 139°41'2 2.1
2014-Nov-26 09:34N 35°26' E 139°43'11 9.9
2014-Nov-26 08:30N 35°36' E 139°46'1 1.0
2014-Nov-26 07:25N 35°36' E 139°47'4 5.0
2014-Nov-26 06:33N 35°34' E 139°51'6 5.6
2014-Nov-26 05:33N 35°28' E 139°51'9 9.0
2014-Nov-26 04:33N 35°21' E 139°45'10 8.5
2014-Nov-26 03:24N 35°11' E 139°46'  
2014-Nov-22 09:07N 35°12' E 139°46'712.7
2014-Nov-22 08:33N 35°19' E 139°43'6 5.5
2014-Nov-22 07:33N 35°24' E 139°41'0 0.2
2014-Nov-22 06:33N 35°24' E 139°41'6 5.6
2014-Nov-22 05:33N 35°28' E 139°45'3 3.0
2014-Nov-22 04:33N 35°25' E 139°46'1211.4
2014-Nov-22 03:33N 35°14' E 139°47'3 0.1
2014-Nov-20 07:12N 35°11' E 139°46'812.1
2014-Nov-20 06:34N 35°19' E 139°43'1110.9
2014-Nov-20 05:33N 35°28' E 139°49'9 7.3
2014-Nov-20 04:24N 35°36' E 139°46'4 5.0
2014-Nov-20 03:33N 35°34' E 139°50'3 3.3
2014-Nov-20 02:33N 35°30' E 139°50'0 0.0
2014-Nov-20 01:34N 35°30' E 139°50'0 0.0
2014-Nov-20 00:33N 35°30' E 139°50'0 0.0
2014-Nov-19 18:16N 35°30' E 139°50'5 6.7
2014-Nov-19 17:33N 35°26' E 139°47'1111.1
2014-Nov-19 16:33N 35°15' E 139°47'  

Dump ship's entire track history